Airfield :
LOGIN :

Register | Disclaimer

   EN    FR    IT 

 










Legend :    VFR   Marginal VFR   IFR   Intensive IFR   Very Intensive IFR
Visi :
Ceiling :
>= 8 km
>= 3000ft
5 to 8 km
1000 to 3000 ft
1500m to 5 km
500 to 1000 ft
800 to 1500m
200 to 500 ft
< 800m
< 200 ft
Symbols :   Thunderstorms  Fog  Heavy snow  Heavy precipitations  Wind > 20 kt
SIGMETs :     Misc.  Thunderstorms  Icing  Turbulence  Mountain Waves  Volcanic Ashes







- Airport Elevation : 122 ft
- IATA code : TXL


EDDT - Berlin Tegel Int.

CURRENT METAR :
  • 192220Z 29004KT CAVOK 24/14 Q1008

EXPIRED METARs :
  • 192150Z VRB02KT CAVOK 24/14 Q1008
  • 192120Z VRB02KT CAVOK 24/14 Q1007
  • 192050Z 29006KT 9999 FEW075TCU 25/14 Q1007 NOSIG
  • 192020Z 16004KT 130V200 9999 FEW075TCU 25/12 Q1007 NOSIG
  • 191950Z 16005KT 9999 FEW075TCU 26/12 Q1007 NOSIG

TAF TAF EDDT
Valid from the 19 at 18:00 until the 20 at 18:00 UTC


191700Z 1918/2018 20005KT CAVOK
TEMPO 1918/1922 -TSRA BKN040CB
BECMG 2004/2006 26008KT
TEMPO 2012/2018 25015G25KT -TSRA SCT030CB
No reported NOTAMs for that airfield.
2 SIGMETs reported for the Bremen FIR (EDWW) :
 
Frequent thunderstorms
EDWW SIGMET 9 VALID 192130/192300 EDZF
EDWW BREMEN FIR FRQ TS FCST APRX 35NM WID LINE BTN N5407 E00800 - N5312 E00947 - N5156 E01015 TOP FL380 MOV NNE NC=
Frequent thunderstorms
EDWW SIGMET 8 VALID 192120/192230 EDZF
EDWW BREMEN FIR FRQ TS FCST APRX 30NM WID LINE BTN N5254 E01128 - N5224 E01158 - N5158 E01216 TOP FL380 MOV NNE NC=



MET'MAP, your aeronautical weather chart ! - Copyright ORBIFLY December 2007 - Disclaimer

ORBIFLY MET'MAP TEAM :

Programming & Development : Alexandra Zaïnal
Concept & Development : Baudouin d'Aumeries
Co-Development & Prog : Marc-Olivier Méhu
Technical & hardware support : Manuel Goepfert

Contact : metmap@orbifly.com




SOURCES & CREDITS :

   NOAA